Главная страница
METAR-TAF:

METAR-TAF

Аэропорты :

Хальмстад, Швеция

широта: 56-41N, долгота: 012-50E, высота над уровнем моря: 30 м

Текущие метеонаблюдения

Эта сводка был подготовлена 29 минут назад, в 03:20 UTC
Ветер 5 Узел от северо-западный
Температура 13°C
Влажность 94%
Давление 1018 hPa
Видимость: 4100 м
дымка

METAR: ESMT 180320Z AUTO 31005KT 4100 BR SCT015/// BKN028/// BKN049/// 13/12 Q1018

Время: 05:49 (03:49 UTC)

Прогноз

Эта сводка был подготовлена 16 минут назад, в 03:33 UTC
Прогноз действительный с 18-го 04 UTC до 18-го 12 UTC
Ветер 10 Узел от северо-западный
Видимость: 4000 м
Отдельные облака на высоте 1500 фута
небольшой дождь, Морось, дымка
изменения
С 18-го 04 UTC до 18-го 06 UTC
Видимость 10 км и более

TAF: ESMT 180333Z 1804/1812 32010KT 4000 -RADZ BR SCT015 BECMG 1804/1806 9999 NSW

Метеонаблюдения и прогнозы для более 4000 аэропортов (сводки METAR и TAF).

Имеющиеся станции представлены на карте желтыми и красными точками.

Чтобы увидеть название станции, наведите на нее мышь.

Затем щелкните, чтобы увидеть метеонаблюдения и метеопрогнозы.

Управление картой: чтобы увеличить масштаб, щелкните зеленые кнопки с черным крестиком; чтобы уменьшить масштаб, щелкните зеленую кнопку с тире; для просмотра соседних карт щелкайте зеленые стрелки.


METAR-TAF: